Main page
METAR-TAF:

METAR-TAF

Airports :

Isle of Man Airport

Isle of Man,

latitude: 54-05N, longitude: 004-38W, elevation: 17 m

Current weather observation

The report was made 41 minutes ago, at 00:50 UTC
Wind 24 kt from the West/Southwest
Temperature 6°C
Humidity 70%
Pressure 1011 hPa
Visibility 10 km or more
Broken clouds at a height of 2000 ft

METAR: EGNS 180050Z 25024KT 9999 BKN020 06/01 Q1011

Time: 01:31 (01:31 UTC)

Forecast

The report was made 8 hours and 24 minutes ago, at 17:07 UTC
Forecast valid from 17 at 18 UTC to 17 at 22 UTC
Wind 25 kt from the West with gusts up to 38 kt
Visibility 10 km or more
Few clouds at a height of 2000 ft

TAF: EGNS 171707Z 1718/1722 26025G38KT 9999 FEW020

Weather observations and forecasts of more than 4000 airports (METAR and TAF reports).

The available stations are represented by yellow and red dots on the map.

Hover mouse over dot to see the name of the station.

Then click to see weather observations and forecasts.

To change the map : click on the green buttons with a black cross to zoom in, on the green button with a dash to zoom out, or on the green arrows for adjacent maps.


METAR-TAF: